sensor_id;sensor_type;location;lat;lon;timestamp;P1;durP1;ratioP1;P2;durP2;ratioP2
6376;SDS011;3221;48.858;10.128;2023-04-03T00:01:08;6.37;;;4.50;;
6376;SDS011;3221;48.858;10.128;2023-04-03T00:03:35;5.53;;;4.43;;
6376;SDS011;3221;48.858;10.128;2023-04-03T00:06:03;5.43;;;4.20;;
6376;SDS011;3221;48.858;10.128;2023-04-03T00:08:33;6.73;;;4.80;;
6376;SDS011;3221;48.858;10.128;2023-04-03T00:11:00;6.97;;;4.37;;
6376;SDS011;3221;48.858;10.128;2023-04-03T00:13:27;7.87;;;4.40;;
6376;SDS011;3221;48.858;10.128;2023-04-03T00:15:54;6.20;;;4.37;;
6376;SDS011;3221;48.858;10.128;2023-04-03T00:18:21;5.60;;;4.03;;
6376;SDS011;3221;48.858;10.128;2023-04-03T00:20:48;5.50;;;4.50;;
6376;SDS011;3221;48.858;10.128;2023-04-03T00:23:15;7.10;;;4.40;;
6376;SDS011;3221;48.858;10.128;2023-04-03T00:25:43;6.47;;;4.20;;
6376;SDS011;3221;48.858;10.128;2023-04-03T00:28:09;6.33;;;4.03;;
6376;SDS011;3221;48.858;10.128;2023-04-03T00:30:37;5.40;;;4.30;;
6376;SDS011;3221;48.858;10.128;2023-04-03T00:33:04;6.03;;;4.20;;
6376;SDS011;3221;48.858;10.128;2023-04-03T00:35:31;4.17;;;3.77;;
6376;SDS011;3221;48.858;10.128;2023-04-03T00:38:00;5.17;;;3.90;;
6376;SDS011;3221;48.858;10.128;2023-04-03T00:40:27;6.47;;;4.17;;
6376;SDS011;3221;48.858;10.128;2023-04-03T00:42:56;8.03;;;4.50;;
6376;SDS011;3221;48.858;10.128;2023-04-03T00:45:43;5.97;;;3.90;;
6376;SDS011;3221;48.858;10.128;2023-04-03T00:48:17;4.30;;;3.90;;
6376;SDS011;3221;48.858;10.128;2023-04-03T00:50:47;7.33;;;4.60;;
6376;SDS011;3221;48.858;10.128;2023-04-03T00:53:16;5.83;;;4.10;;
6376;SDS011;3221;48.858;10.128;2023-04-03T00:56:13;5.70;;;4.10;;
6376;SDS011;3221;48.858;10.128;2023-04-03T00:58:45;5.00;;;3.80;;
6376;SDS011;3221;48.858;10.128;2023-04-03T01:01:17;6.80;;;4.10;;
6376;SDS011;3221;48.858;10.128;2023-04-03T01:03:48;5.87;;;4.00;;
6376;SDS011;3221;48.858;10.128;2023-04-03T01:06:16;6.23;;;3.83;;
6376;SDS011;3221;48.858;10.128;2023-04-03T01:08:47;7.00;;;4.53;;
6376;SDS011;3221;48.858;10.128;2023-04-03T01:11:15;6.57;;;4.23;;
6376;SDS011;3221;48.858;10.128;2023-04-03T01:13:43;5.50;;;3.93;;
6376;SDS011;3221;48.858;10.128;2023-04-03T01:16:10;6.40;;;4.07;;
6376;SDS011;3221;48.858;10.128;2023-04-03T01:18:38;5.57;;;4.07;;
6376;SDS011;3221;48.858;10.128;2023-04-03T01:26:23;7.10;;;4.20;;
6376;SDS011;3221;48.858;10.128;2023-04-03T01:28:53;6.57;;;4.07;;
6376;SDS011;3221;48.858;10.128;2023-04-03T01:31:28;4.33;;;3.90;;
6376;SDS011;3221;48.858;10.128;2023-04-03T01:34:02;5.10;;;3.90;;
6376;SDS011;3221;48.858;10.128;2023-04-03T01:36:31;6.10;;;4.00;;
6376;SDS011;3221;48.858;10.128;2023-04-03T01:38:58;4.33;;;3.63;;
6376;SDS011;3221;48.858;10.128;2023-04-03T01:41:27;4.53;;;3.70;;
6376;SDS011;3221;48.858;10.128;2023-04-03T01:44:01;4.20;;;3.80;;
6376;SDS011;3221;48.858;10.128;2023-04-03T01:46:28;4.13;;;3.73;;
6376;SDS011;3221;48.858;10.128;2023-04-03T01:48:55;6.47;;;3.70;;
6376;SDS011;3221;48.858;10.128;2023-04-03T01:51:22;5.80;;;3.80;;
6376;SDS011;3221;48.858;10.128;2023-04-03T01:53:48;8.67;;;3.63;;
6376;SDS011;3221;48.858;10.128;2023-04-03T01:56:16;4.20;;;3.50;;
6376;SDS011;3221;48.858;10.128;2023-04-03T01:58:43;8.80;;;3.90;;
6376;SDS011;3221;48.858;10.128;2023-04-03T02:01:10;4.77;;;3.60;;
6376;SDS011;3221;48.858;10.128;2023-04-03T02:03:37;3.97;;;3.53;;
6376;SDS011;3221;48.858;10.128;2023-04-03T02:06:04;5.90;;;3.93;;
6376;SDS011;3221;48.858;10.128;2023-04-03T02:08:32;4.30;;;3.90;;
6376;SDS011;3221;48.858;10.128;2023-04-03T02:10:59;6.57;;;4.33;;
6376;SDS011;3221;48.858;10.128;2023-04-03T02:13:25;6.60;;;4.37;;
6376;SDS011;3221;48.858;10.128;2023-04-03T02:15:52;6.37;;;4.10;;
6376;SDS011;3221;48.858;10.128;2023-04-03T02:18:19;5.30;;;4.10;;
6376;SDS011;3221;48.858;10.128;2023-04-03T02:20:46;5.77;;;3.67;;
6376;SDS011;3221;48.858;10.128;2023-04-03T02:23:14;4.73;;;3.90;;
6376;SDS011;3221;48.858;10.128;2023-04-03T02:25:40;5.47;;;3.57;;
6376;SDS011;3221;48.858;10.128;2023-04-03T02:28:07;6.27;;;3.70;;
6376;SDS011;3221;48.858;10.128;2023-04-03T02:30:34;4.67;;;3.83;;
6376;SDS011;3221;48.858;10.128;2023-04-03T02:33:03;6.53;;;3.87;;
6376;SDS011;3221;48.858;10.128;2023-04-03T02:35:30;4.53;;;3.43;;
6376;SDS011;3221;48.858;10.128;2023-04-03T02:37:58;4.00;;;3.60;;
6376;SDS011;3221;48.858;10.128;2023-04-03T02:40:25;5.67;;;3.53;;
6376;SDS011;3221;48.858;10.128;2023-04-03T02:42:51;4.10;;;3.30;;
6376;SDS011;3221;48.858;10.128;2023-04-03T02:45:19;4.30;;;3.90;;
6376;SDS011;3221;48.858;10.128;2023-04-03T02:47:46;5.77;;;3.70;;
6376;SDS011;3221;48.858;10.128;2023-04-03T02:50:13;5.47;;;3.90;;
6376;SDS011;3221;48.858;10.128;2023-04-03T02:52:40;6.67;;;3.53;;
6376;SDS011;3221;48.858;10.128;2023-04-03T02:55:07;7.97;;;3.73;;
6376;SDS011;3221;48.858;10.128;2023-04-03T02:57:34;4.40;;;3.97;;
6376;SDS011;3221;48.858;10.128;2023-04-03T03:00:02;5.17;;;3.60;;
6376;SDS011;3221;48.858;10.128;2023-04-03T03:02:29;3.90;;;3.40;;
6376;SDS011;3221;48.858;10.128;2023-04-03T03:04:56;5.20;;;3.60;;
6376;SDS011;3221;48.858;10.128;2023-04-03T03:07:23;6.93;;;3.50;;
6376;SDS011;3221;48.858;10.128;2023-04-03T03:09:50;5.00;;;3.60;;
6376;SDS011;3221;48.858;10.128;2023-04-03T03:12:17;5.80;;;4.23;;
6376;SDS011;3221;48.858;10.128;2023-04-03T03:14:48;7.30;;;3.60;;
6376;SDS011;3221;48.858;10.128;2023-04-03T03:17:16;4.23;;;3.50;;
6376;SDS011;3221;48.858;10.128;2023-04-03T03:19:43;5.00;;;3.83;;
6376;SDS011;3221;48.858;10.128;2023-04-03T03:22:11;4.00;;;3.60;;
6376;SDS011;3221;48.858;10.128;2023-04-03T03:24:38;4.23;;;3.83;;
6376;SDS011;3221;48.858;10.128;2023-04-03T03:27:05;5.63;;;3.80;;
6376;SDS011;3221;48.858;10.128;2023-04-03T03:29:32;5.97;;;3.80;;
6376;SDS011;3221;48.858;10.128;2023-04-03T03:32:01;5.90;;;3.67;;
6376;SDS011;3221;48.858;10.128;2023-04-03T03:34:27;6.17;;;3.80;;
6376;SDS011;3221;48.858;10.128;2023-04-03T03:36:54;10.30;;;5.57;;
6376;SDS011;3221;48.858;10.128;2023-04-03T03:39:21;7.90;;;4.80;;
6376;SDS011;3221;48.858;10.128;2023-04-03T03:41:48;5.87;;;4.60;;
6376;SDS011;3221;48.858;10.128;2023-04-03T03:44:16;6.17;;;4.00;;
6376;SDS011;3221;48.858;10.128;2023-04-03T03:46:43;3.67;;;3.17;;
6376;SDS011;3221;48.858;10.128;2023-04-03T03:49:10;3.97;;;3.40;;
6376;SDS011;3221;48.858;10.128;2023-04-03T03:51:38;3.37;;;3.07;;
6376;SDS011;3221;48.858;10.128;2023-04-03T03:54:06;4.70;;;3.73;;
6376;SDS011;3221;48.858;10.128;2023-04-03T03:56:34;4.07;;;3.33;;
6376;SDS011;3221;48.858;10.128;2023-04-03T03:59:02;3.93;;;3.57;;
6376;SDS011;3221;48.858;10.128;2023-04-03T04:01:30;3.50;;;3.20;;
6376;SDS011;3221;48.858;10.128;2023-04-03T04:03:57;4.10;;;2.83;;
6376;SDS011;3221;48.858;10.128;2023-04-03T04:06:28;4.33;;;3.03;;
6376;SDS011;3221;48.858;10.128;2023-04-03T04:08:59;4.97;;;3.50;;
6376;SDS011;3221;48.858;10.128;2023-04-03T04:11:26;3.57;;;3.10;;
6376;SDS011;3221;48.858;10.128;2023-04-03T04:13:54;6.33;;;3.57;;
6376;SDS011;3221;48.858;10.128;2023-04-03T04:16:24;6.40;;;3.20;;
6376;SDS011;3221;48.858;10.128;2023-04-03T04:18:52;4.33;;;3.10;;
6376;SDS011;3221;48.858;10.128;2023-04-03T04:21:20;6.10;;;3.43;;
6376;SDS011;3221;48.858;10.128;2023-04-03T04:23:49;4.73;;;3.40;;
6376;SDS011;3221;48.858;10.128;2023-04-03T04:26:16;3.90;;;3.20;;
6376;SDS011;3221;48.858;10.128;2023-04-03T04:28:43;3.53;;;3.23;;
6376;SDS011;3221;48.858;10.128;2023-04-03T04:31:10;3.53;;;3.10;;
6376;SDS011;3221;48.858;10.128;2023-04-03T04:33:37;3.60;;;3.30;;
6376;SDS011;3221;48.858;10.128;2023-04-03T04:36:06;5.00;;;3.30;;
6376;SDS011;3221;48.858;10.128;2023-04-03T04:38:34;6.43;;;3.60;;
6376;SDS011;3221;48.858;10.128;2023-04-03T04:41:01;7.07;;;3.53;;
6376;SDS011;3221;48.858;10.128;2023-04-03T04:43:29;8.10;;;3.27;;
6376;SDS011;3221;48.858;10.128;2023-04-03T04:46:04;4.93;;;3.70;;
6376;SDS011;3221;48.858;10.128;2023-04-03T04:48:36;5.80;;;3.20;;
6376;SDS011;3221;48.858;10.128;2023-04-03T04:51:05;4.63;;;3.20;;
6376;SDS011;3221;48.858;10.128;2023-04-03T04:53:32;4.17;;;3.50;;
6376;SDS011;3221;48.858;10.128;2023-04-03T04:55:59;5.53;;;3.60;;
6376;SDS011;3221;48.858;10.128;2023-04-03T04:58:26;4.37;;;3.23;;
6376;SDS011;3221;48.858;10.128;2023-04-03T05:01:03;4.03;;;3.20;;
6376;SDS011;3221;48.858;10.128;2023-04-03T05:03:34;4.97;;;3.57;;
6376;SDS011;3221;48.858;10.128;2023-04-03T05:06:02;4.07;;;3.20;;
6376;SDS011;3221;48.858;10.128;2023-04-03T05:08:30;4.73;;;3.37;;
6376;SDS011;3221;48.858;10.128;2023-04-03T05:10:59;3.87;;;3.30;;
6376;SDS011;3221;48.858;10.128;2023-04-03T05:13:27;3.57;;;3.00;;
6376;SDS011;3221;48.858;10.128;2023-04-03T05:15:55;3.40;;;3.10;;
6376;SDS011;3221;48.858;10.128;2023-04-03T05:18:22;3.37;;;2.93;;
6376;SDS011;3221;48.858;10.128;2023-04-03T05:20:51;6.13;;;3.10;;
6376;SDS011;3221;48.858;10.128;2023-04-03T05:23:19;5.27;;;3.10;;
6376;SDS011;3221;48.858;10.128;2023-04-03T05:25:46;3.57;;;2.90;;
6376;SDS011;3221;48.858;10.128;2023-04-03T05:28:15;5.23;;;3.27;;
6376;SDS011;3221;48.858;10.128;2023-04-03T05:30:43;4.17;;;3.20;;
6376;SDS011;3221;48.858;10.128;2023-04-03T05:33:10;5.40;;;3.23;;
6376;SDS011;3221;48.858;10.128;2023-04-03T05:35:44;3.17;;;2.90;;
6376;SDS011;3221;48.858;10.128;2023-04-03T05:38:16;4.90;;;3.17;;
6376;SDS011;3221;48.858;10.128;2023-04-03T05:40:43;4.03;;;3.50;;
6376;SDS011;3221;48.858;10.128;2023-04-03T05:43:10;4.03;;;3.20;;
6376;SDS011;3221;48.858;10.128;2023-04-03T05:45:40;4.57;;;3.10;;
6376;SDS011;3221;48.858;10.128;2023-04-03T05:48:08;6.47;;;3.30;;
6376;SDS011;3221;48.858;10.128;2023-04-03T05:50:36;5.10;;;3.00;;
6376;SDS011;3221;48.858;10.128;2023-04-03T05:53:13;4.00;;;3.07;;
6376;SDS011;3221;48.858;10.128;2023-04-03T05:55:48;3.70;;;2.93;;
6376;SDS011;3221;48.858;10.128;2023-04-03T05:58:15;4.63;;;3.07;;
6376;SDS011;3221;48.858;10.128;2023-04-03T06:00:44;6.23;;;3.57;;
6376;SDS011;3221;48.858;10.128;2023-04-03T06:03:11;3.90;;;3.17;;
6376;SDS011;3221;48.858;10.128;2023-04-03T06:05:38;4.03;;;3.13;;
6376;SDS011;3221;48.858;10.128;2023-04-03T06:08:06;4.60;;;3.33;;
6376;SDS011;3221;48.858;10.128;2023-04-03T06:10:33;4.83;;;3.30;;
6376;SDS011;3221;48.858;10.128;2023-04-03T06:13:00;5.87;;;3.40;;
6376;SDS011;3221;48.858;10.128;2023-04-03T06:15:27;6.40;;;2.97;;
6376;SDS011;3221;48.858;10.128;2023-04-03T06:17:54;5.13;;;3.30;;
6376;SDS011;3221;48.858;10.128;2023-04-03T06:20:21;5.33;;;3.40;;
6376;SDS011;3221;48.858;10.128;2023-04-03T06:22:48;4.77;;;3.17;;
6376;SDS011;3221;48.858;10.128;2023-04-03T06:25:16;5.07;;;3.40;;
6376;SDS011;3221;48.858;10.128;2023-04-03T06:27:45;3.37;;;3.07;;
6376;SDS011;3221;48.858;10.128;2023-04-03T06:30:12;5.30;;;3.20;;
6376;SDS011;3221;48.858;10.128;2023-04-03T06:32:39;4.93;;;3.50;;
6376;SDS011;3221;48.858;10.128;2023-04-03T06:35:06;6.67;;;3.60;;
6376;SDS011;3221;48.858;10.128;2023-04-03T06:37:34;6.53;;;3.50;;
6376;SDS011;3221;48.858;10.128;2023-04-03T06:40:01;6.00;;;3.47;;
6376;SDS011;3221;48.858;10.128;2023-04-03T06:42:29;4.93;;;3.67;;
6376;SDS011;3221;48.858;10.128;2023-04-03T06:45:04;4.60;;;3.77;;
6376;SDS011;3221;48.858;10.128;2023-04-03T06:47:32;6.47;;;3.73;;
6376;SDS011;3221;48.858;10.128;2023-04-03T06:49:59;4.97;;;3.73;;
6376;SDS011;3221;48.858;10.128;2023-04-03T06:52:26;4.67;;;3.67;;
6376;SDS011;3221;48.858;10.128;2023-04-03T06:54:53;5.70;;;3.57;;
6376;SDS011;3221;48.858;10.128;2023-04-03T06:57:23;5.70;;;3.83;;
6376;SDS011;3221;48.858;10.128;2023-04-03T06:59:50;7.10;;;3.73;;
6376;SDS011;3221;48.858;10.128;2023-04-03T07:02:17;5.60;;;3.53;;
6376;SDS011;3221;48.858;10.128;2023-04-03T07:04:45;4.83;;;3.73;;
6376;SDS011;3221;48.858;10.128;2023-04-03T07:07:12;5.57;;;3.83;;
6376;SDS011;3221;48.858;10.128;2023-04-03T07:09:39;3.93;;;3.60;;
6376;SDS011;3221;48.858;10.128;2023-04-03T07:12:06;5.13;;;3.80;;
6376;SDS011;3221;48.858;10.128;2023-04-03T07:14:33;6.67;;;3.80;;
6376;SDS011;3221;48.858;10.128;2023-04-03T07:17:00;4.23;;;3.63;;
6376;SDS011;3221;48.858;10.128;2023-04-03T07:19:27;5.17;;;3.93;;
6376;SDS011;3221;48.858;10.128;2023-04-03T07:21:54;6.73;;;4.40;;
6376;SDS011;3221;48.858;10.128;2023-04-03T07:24:21;6.30;;;3.90;;
6376;SDS011;3221;48.858;10.128;2023-04-03T07:26:54;6.10;;;4.13;;
6376;SDS011;3221;48.858;10.128;2023-04-03T07:29:22;9.37;;;4.30;;
6376;SDS011;3221;48.858;10.128;2023-04-03T07:31:50;5.37;;;3.90;;
6376;SDS011;3221;48.858;10.128;2023-04-03T07:34:17;6.40;;;4.40;;
6376;SDS011;3221;48.858;10.128;2023-04-03T07:36:43;7.07;;;4.43;;
6376;SDS011;3221;48.858;10.128;2023-04-03T07:39:10;5.83;;;4.07;;
6376;SDS011;3221;48.858;10.128;2023-04-03T07:41:37;5.53;;;4.43;;
6376;SDS011;3221;48.858;10.128;2023-04-03T07:44:04;5.90;;;4.30;;
6376;SDS011;3221;48.858;10.128;2023-04-03T07:46:31;6.50;;;4.23;;
6376;SDS011;3221;48.858;10.128;2023-04-03T07:48:58;5.00;;;4.50;;
6376;SDS011;3221;48.858;10.128;2023-04-03T07:51:25;5.83;;;4.40;;
6376;SDS011;3221;48.858;10.128;2023-04-03T07:53:53;7.30;;;4.50;;
6376;SDS011;3221;48.858;10.128;2023-04-03T07:56:20;6.43;;;4.77;;
6376;SDS011;3221;48.858;10.128;2023-04-03T07:58:47;5.53;;;4.17;;
6376;SDS011;3221;48.858;10.128;2023-04-03T08:01:14;7.10;;;4.80;;
6376;SDS011;3221;48.858;10.128;2023-04-03T08:03:40;5.63;;;4.93;;
6376;SDS011;3221;48.858;10.128;2023-04-03T08:06:08;6.13;;;4.70;;
6376;SDS011;3221;48.858;10.128;2023-04-03T08:08:44;6.40;;;4.70;;
6376;SDS011;3221;48.858;10.128;2023-04-03T08:11:11;5.70;;;5.10;;
6376;SDS011;3221;48.858;10.128;2023-04-03T08:13:38;6.47;;;4.20;;
6376;SDS011;3221;48.858;10.128;2023-04-03T08:16:11;5.77;;;4.30;;
6376;SDS011;3221;48.858;10.128;2023-04-03T08:18:42;7.23;;;4.50;;
6376;SDS011;3221;48.858;10.128;2023-04-03T08:21:09;6.60;;;4.60;;
6376;SDS011;3221;48.858;10.128;2023-04-03T08:23:38;5.37;;;4.20;;
6376;SDS011;3221;48.858;10.128;2023-04-03T08:26:06;5.27;;;4.60;;
6376;SDS011;3221;48.858;10.128;2023-04-03T08:28:38;7.27;;;4.50;;
6376;SDS011;3221;48.858;10.128;2023-04-03T08:31:06;6.73;;;4.87;;
6376;SDS011;3221;48.858;10.128;2023-04-03T08:33:37;7.40;;;5.00;;
6376;SDS011;3221;48.858;10.128;2023-04-03T08:36:05;5.20;;;4.70;;
6376;SDS011;3221;48.858;10.128;2023-04-03T08:38:33;6.53;;;4.63;;
6376;SDS011;3221;48.858;10.128;2023-04-03T08:41:14;6.90;;;4.87;;
6376;SDS011;3221;48.858;10.128;2023-04-03T08:43:54;5.90;;;4.80;;
6376;SDS011;3221;48.858;10.128;2023-04-03T08:46:44;6.97;;;4.97;;
6376;SDS011;3221;48.858;10.128;2023-04-03T08:49:26;6.63;;;4.47;;
6376;SDS011;3221;48.858;10.128;2023-04-03T08:51:58;7.13;;;4.43;;
6376;SDS011;3221;48.858;10.128;2023-04-03T08:57:39;6.67;;;4.63;;
6376;SDS011;3221;48.858;10.128;2023-04-03T09:00:16;7.93;;;4.43;;
6376;SDS011;3221;48.858;10.128;2023-04-03T09:02:50;5.83;;;4.40;;
6376;SDS011;3221;48.858;10.128;2023-04-03T09:05:20;5.40;;;4.17;;
6376;SDS011;3221;48.858;10.128;2023-04-03T09:07:55;5.97;;;3.87;;
6376;SDS011;3221;48.858;10.128;2023-04-03T09:10:28;6.50;;;4.37;;
6376;SDS011;3221;48.858;10.128;2023-04-03T09:13:06;5.80;;;4.30;;
6376;SDS011;3221;48.858;10.128;2023-04-03T09:15:39;5.67;;;4.20;;
6376;SDS011;3221;48.858;10.128;2023-04-03T09:18:12;6.60;;;4.30;;
6376;SDS011;3221;48.858;10.128;2023-04-03T09:23:36;6.77;;;4.53;;
6376;SDS011;3221;48.858;10.128;2023-04-03T09:29:06;4.73;;;3.93;;
6376;SDS011;3221;48.858;10.128;2023-04-03T09:31:38;7.03;;;4.33;;
6376;SDS011;3221;48.858;10.128;2023-04-03T09:34:41;5.57;;;4.00;;
6376;SDS011;3221;48.858;10.128;2023-04-03T09:37:04;5.30;;;3.67;;
6376;SDS011;3221;48.858;10.128;2023-04-03T09:39:51;6.70;;;4.50;;
6376;SDS011;3221;48.858;10.128;2023-04-03T09:42:23;6.00;;;3.90;;
6376;SDS011;3221;48.858;10.128;2023-04-03T09:44:55;6.63;;;3.90;;
6376;SDS011;3221;48.858;10.128;2023-04-03T09:47:35;4.80;;;3.60;;
6376;SDS011;3221;48.858;10.128;2023-04-03T09:52:43;3.93;;;3.60;;
6376;SDS011;3221;48.858;10.128;2023-04-03T09:55:15;4.70;;;3.90;;
6376;SDS011;3221;48.858;10.128;2023-04-03T09:58:00;5.47;;;3.53;;
6376;SDS011;3221;48.858;10.128;2023-04-03T10:02:59;4.47;;;3.40;;
6376;SDS011;3221;48.858;10.128;2023-04-03T10:05:37;5.03;;;3.80;;
6376;SDS011;3221;48.858;10.128;2023-04-03T10:10:37;4.63;;;3.80;;
6376;SDS011;3221;48.858;10.128;2023-04-03T10:15:44;5.00;;;3.80;;
6376;SDS011;3221;48.858;10.128;2023-04-03T10:18:39;5.10;;;3.70;;
6376;SDS011;3221;48.858;10.128;2023-04-03T10:21:20;5.00;;;3.33;;
6376;SDS011;3221;48.858;10.128;2023-04-03T10:23:56;5.37;;;3.87;;
6376;SDS011;3221;48.858;10.128;2023-04-03T10:29:19;4.60;;;3.30;;
6376;SDS011;3221;48.858;10.128;2023-04-03T10:35:00;6.53;;;3.90;;
6376;SDS011;3221;48.858;10.128;2023-04-03T10:37:51;5.10;;;3.40;;
6376;SDS011;3221;48.858;10.128;2023-04-03T10:48:51;4.43;;;3.23;;
6376;SDS011;3221;48.858;10.128;2023-04-03T10:54:30;4.67;;;3.53;;
6376;SDS011;3221;48.858;10.128;2023-04-03T10:57:19;4.33;;;3.60;;
6376;SDS011;3221;48.858;10.128;2023-04-03T10:59:57;4.97;;;3.37;;
6376;SDS011;3221;48.858;10.128;2023-04-03T11:02:33;6.97;;;3.50;;
6376;SDS011;3221;48.858;10.128;2023-04-03T11:10:58;4.03;;;2.97;;
6376;SDS011;3221;48.858;10.128;2023-04-03T11:13:36;4.00;;;2.77;;
6376;SDS011;3221;48.858;10.128;2023-04-03T11:16:12;3.93;;;3.30;;
6376;SDS011;3221;48.858;10.128;2023-04-03T11:18:57;4.70;;;3.60;;
6376;SDS011;3221;48.858;10.128;2023-04-03T11:21:42;4.07;;;3.50;;
6376;SDS011;3221;48.858;10.128;2023-04-03T11:24:16;5.87;;;3.80;;
6376;SDS011;3221;48.858;10.128;2023-04-03T11:26:48;4.57;;;3.63;;
6376;SDS011;3221;48.858;10.128;2023-04-03T11:29:18;8.27;;;3.67;;
6376;SDS011;3221;48.858;10.128;2023-04-03T11:34:53;5.17;;;3.60;;
6376;SDS011;3221;48.858;10.128;2023-04-03T11:37:35;5.23;;;3.53;;
6376;SDS011;3221;48.858;10.128;2023-04-03T11:40:28;4.90;;;3.60;;
6376;SDS011;3221;48.858;10.128;2023-04-03T11:45:34;5.67;;;3.40;;
6376;SDS011;3221;48.858;10.128;2023-04-03T11:51:00;3.73;;;3.33;;
6376;SDS011;3221;48.858;10.128;2023-04-03T11:53:37;5.70;;;3.47;;
6376;SDS011;3221;48.858;10.128;2023-04-03T12:04:18;5.07;;;3.83;;
6376;SDS011;3221;48.858;10.128;2023-04-03T12:11:48;3.40;;;3.10;;
6376;SDS011;3221;48.858;10.128;2023-04-03T12:14:16;6.20;;;3.60;;
6376;SDS011;3221;48.858;10.128;2023-04-03T12:16:46;5.77;;;3.60;;
6376;SDS011;3221;48.858;10.128;2023-04-03T12:24:26;5.30;;;3.47;;
6376;SDS011;3221;48.858;10.128;2023-04-03T12:30:05;3.47;;;3.13;;
6376;SDS011;3221;48.858;10.128;2023-04-03T12:32:58;4.13;;;3.17;;
6376;SDS011;3221;48.858;10.128;2023-04-03T12:35:40;6.00;;;3.70;;
6376;SDS011;3221;48.858;10.128;2023-04-03T12:51:57;4.83;;;3.90;;
6376;SDS011;3221;48.858;10.128;2023-04-03T12:54:38;5.40;;;4.13;;
6376;SDS011;3221;48.858;10.128;2023-04-03T12:57:11;5.17;;;4.03;;
6376;SDS011;3221;48.858;10.128;2023-04-03T12:59:41;4.10;;;3.63;;
6376;SDS011;3221;48.858;10.128;2023-04-03T13:02:22;4.57;;;3.43;;
6376;SDS011;3221;48.858;10.128;2023-04-03T13:04:51;5.63;;;3.73;;
6376;SDS011;3221;48.858;10.128;2023-04-03T13:07:24;5.87;;;3.50;;
6376;SDS011;3221;48.858;10.128;2023-04-03T13:12:33;4.03;;;3.47;;
6376;SDS011;3221;48.858;10.128;2023-04-03T13:15:11;5.27;;;3.40;;
6376;SDS011;3221;48.858;10.128;2023-04-03T13:17:41;4.17;;;3.63;;
6376;SDS011;3221;48.858;10.128;2023-04-03T13:20:10;5.73;;;3.40;;
6376;SDS011;3221;48.858;10.128;2023-04-03T13:22:42;4.30;;;3.33;;
6376;SDS011;3221;48.858;10.128;2023-04-03T13:25:16;6.83;;;3.47;;
6376;SDS011;3221;48.858;10.128;2023-04-03T13:27:45;5.47;;;3.63;;
6376;SDS011;3221;48.858;10.128;2023-04-03T13:30:25;6.33;;;2.93;;
6376;SDS011;3221;48.858;10.128;2023-04-03T13:32:59;6.27;;;3.40;;
6376;SDS011;3221;48.858;10.128;2023-04-03T13:35:36;4.63;;;3.30;;
6376;SDS011;3221;48.858;10.128;2023-04-03T13:40:55;4.77;;;3.23;;
6376;SDS011;3221;48.858;10.128;2023-04-03T13:43:27;4.87;;;3.40;;
6376;SDS011;3221;48.858;10.128;2023-04-03T13:46:05;6.10;;;3.40;;
6376;SDS011;3221;48.858;10.128;2023-04-03T13:48:38;4.13;;;3.20;;
6376;SDS011;3221;48.858;10.128;2023-04-03T13:53:56;3.97;;;3.17;;
6376;SDS011;3221;48.858;10.128;2023-04-03T13:56:31;4.37;;;3.17;;
6376;SDS011;3221;48.858;10.128;2023-04-03T14:01:41;3.90;;;2.87;;
6376;SDS011;3221;48.858;10.128;2023-04-03T14:04:14;3.90;;;2.67;;
6376;SDS011;3221;48.858;10.128;2023-04-03T14:06:42;3.23;;;2.93;;
6376;SDS011;3221;48.858;10.128;2023-04-03T14:09:09;5.00;;;2.60;;
6376;SDS011;3221;48.858;10.128;2023-04-03T14:11:36;2.80;;;2.60;;
6376;SDS011;3221;48.858;10.128;2023-04-03T14:14:11;3.33;;;2.60;;
6376;SDS011;3221;48.858;10.128;2023-04-03T14:16:41;3.70;;;3.00;;
6376;SDS011;3221;48.858;10.128;2023-04-03T14:19:14;4.07;;;2.70;;
6376;SDS011;3221;48.858;10.128;2023-04-03T14:21:50;4.60;;;3.10;;
6376;SDS011;3221;48.858;10.128;2023-04-03T14:24:19;3.70;;;3.10;;
6376;SDS011;3221;48.858;10.128;2023-04-03T14:26:47;5.10;;;3.13;;
6376;SDS011;3221;48.858;10.128;2023-04-03T14:29:15;3.33;;;2.83;;
6376;SDS011;3221;48.858;10.128;2023-04-03T14:31:43;5.23;;;3.00;;
6376;SDS011;3221;48.858;10.128;2023-04-03T14:34:12;3.67;;;2.73;;
6376;SDS011;3221;48.858;10.128;2023-04-03T14:36:41;3.90;;;2.80;;
6376;SDS011;3221;48.858;10.128;2023-04-03T14:39:11;5.43;;;2.70;;
6376;SDS011;3221;48.858;10.128;2023-04-03T14:41:43;4.50;;;2.97;;
6376;SDS011;3221;48.858;10.128;2023-04-03T14:44:11;3.13;;;2.83;;
6376;SDS011;3221;48.858;10.128;2023-04-03T14:46:39;5.13;;;3.43;;
6376;SDS011;3221;48.858;10.128;2023-04-03T14:49:14;6.17;;;3.37;;
6376;SDS011;3221;48.858;10.128;2023-04-03T14:51:45;3.33;;;3.00;;
6376;SDS011;3221;48.858;10.128;2023-04-03T14:54:13;6.87;;;3.30;;
6376;SDS011;3221;48.858;10.128;2023-04-03T14:56:41;6.33;;;2.97;;
6376;SDS011;3221;48.858;10.128;2023-04-03T14:59:09;3.90;;;2.97;;
6376;SDS011;3221;48.858;10.128;2023-04-03T15:01:39;4.73;;;3.27;;
6376;SDS011;3221;48.858;10.128;2023-04-03T15:04:19;3.37;;;3.07;;
6376;SDS011;3221;48.858;10.128;2023-04-03T15:06:47;5.70;;;2.80;;
6376;SDS011;3221;48.858;10.128;2023-04-03T15:09:19;5.13;;;3.03;;
6376;SDS011;3221;48.858;10.128;2023-04-03T15:11:49;5.57;;;2.90;;
6376;SDS011;3221;48.858;10.128;2023-04-03T15:14:17;5.43;;;2.63;;
6376;SDS011;3221;48.858;10.128;2023-04-03T15:17:03;3.40;;;2.60;;
6376;SDS011;3221;48.858;10.128;2023-04-03T15:19:38;2.90;;;2.30;;
6376;SDS011;3221;48.858;10.128;2023-04-03T15:22:06;5.43;;;2.80;;
6376;SDS011;3221;48.858;10.128;2023-04-03T15:24:33;4.43;;;2.80;;
6376;SDS011;3221;48.858;10.128;2023-04-03T15:27:00;4.00;;;2.90;;
6376;SDS011;3221;48.858;10.128;2023-04-03T15:29:29;4.00;;;2.73;;
6376;SDS011;3221;48.858;10.128;2023-04-03T15:31:56;3.23;;;2.77;;
6376;SDS011;3221;48.858;10.128;2023-04-03T15:34:23;5.47;;;2.90;;
6376;SDS011;3221;48.858;10.128;2023-04-03T15:36:50;3.43;;;2.70;;
6376;SDS011;3221;48.858;10.128;2023-04-03T15:39:19;6.37;;;3.30;;
6376;SDS011;3221;48.858;10.128;2023-04-03T15:41:47;4.17;;;2.90;;
6376;SDS011;3221;48.858;10.128;2023-04-03T15:44:14;5.03;;;3.00;;
6376;SDS011;3221;48.858;10.128;2023-04-03T15:46:44;7.53;;;3.10;;
6376;SDS011;3221;48.858;10.128;2023-04-03T15:49:12;5.03;;;3.20;;
6376;SDS011;3221;48.858;10.128;2023-04-03T15:51:39;3.53;;;2.80;;
6376;SDS011;3221;48.858;10.128;2023-04-03T15:54:06;4.73;;;3.10;;
6376;SDS011;3221;48.858;10.128;2023-04-03T15:56:33;5.53;;;3.07;;
6376;SDS011;3221;48.858;10.128;2023-04-03T15:59:00;4.10;;;3.30;;
6376;SDS011;3221;48.858;10.128;2023-04-03T16:01:27;4.63;;;3.37;;
6376;SDS011;3221;48.858;10.128;2023-04-03T16:03:54;4.77;;;3.23;;
6376;SDS011;3221;48.858;10.128;2023-04-03T16:06:22;6.20;;;3.00;;
6376;SDS011;3221;48.858;10.128;2023-04-03T16:08:51;9.07;;;4.73;;
6376;SDS011;3221;48.858;10.128;2023-04-03T16:11:26;9.20;;;6.50;;
6376;SDS011;3221;48.858;10.128;2023-04-03T16:13:53;6.90;;;4.53;;
6376;SDS011;3221;48.858;10.128;2023-04-03T16:16:21;6.30;;;4.33;;
6376;SDS011;3221;48.858;10.128;2023-04-03T16:18:49;4.57;;;4.00;;
6376;SDS011;3221;48.858;10.128;2023-04-03T16:21:16;6.63;;;3.70;;
6376;SDS011;3221;48.858;10.128;2023-04-03T16:23:44;6.37;;;3.97;;
6376;SDS011;3221;48.858;10.128;2023-04-03T16:26:11;7.87;;;3.63;;
6376;SDS011;3221;48.858;10.128;2023-04-03T16:28:38;3.67;;;2.93;;
6376;SDS011;3221;48.858;10.128;2023-04-03T16:31:06;4.63;;;3.30;;
6376;SDS011;3221;48.858;10.128;2023-04-03T16:33:34;5.67;;;3.40;;
6376;SDS011;3221;48.858;10.128;2023-04-03T16:36:01;5.83;;;3.30;;
6376;SDS011;3221;48.858;10.128;2023-04-03T16:38:30;3.37;;;3.07;;
6376;SDS011;3221;48.858;10.128;2023-04-03T16:40:57;4.60;;;3.10;;
6376;SDS011;3221;48.858;10.128;2023-04-03T16:43:26;4.10;;;3.10;;
6376;SDS011;3221;48.858;10.128;2023-04-03T16:45:53;4.30;;;3.00;;
6376;SDS011;3221;48.858;10.128;2023-04-03T16:48:20;3.80;;;3.10;;
6376;SDS011;3221;48.858;10.128;2023-04-03T16:50:47;5.73;;;3.03;;
6376;SDS011;3221;48.858;10.128;2023-04-03T16:53:19;5.60;;;3.47;;
6376;SDS011;3221;48.858;10.128;2023-04-03T16:55:49;4.00;;;3.30;;
6376;SDS011;3221;48.858;10.128;2023-04-03T16:58:17;7.90;;;4.87;;
6376;SDS011;3221;48.858;10.128;2023-04-03T17:00:44;5.20;;;3.53;;